createdAt,value
2023-05-22T00:01:32.520Z,50.91
2023-05-22T00:04:00.221Z,50.71
2023-05-22T00:06:27.787Z,50.91
2023-05-22T00:08:55.267Z,51.26
2023-05-22T00:11:23.024Z,50.97
2023-05-22T00:13:50.540Z,51.05
2023-05-22T00:16:18.045Z,50.44
2023-05-22T00:18:45.631Z,50.29
2023-05-22T00:21:13.114Z,50.17
2023-05-22T00:23:41.585Z,51.84
2023-05-22T00:26:08.956Z,52.78
2023-05-22T00:28:36.519Z,53.00
2023-05-22T00:31:04.093Z,52.52
2023-05-22T00:33:31.647Z,52.42
2023-05-22T00:35:59.420Z,52.57
2023-05-22T00:38:35.896Z,52.16
2023-05-22T00:41:04.250Z,51.51
2023-05-22T00:43:33.288Z,51.14
2023-05-22T00:46:01.093Z,50.38
2023-05-22T00:48:28.424Z,50.88
2023-05-22T00:50:57.230Z,50.63
2023-05-22T00:53:25.409Z,51.58
2023-05-22T00:55:53.873Z,54.10
2023-05-22T00:58:21.906Z,53.16
2023-05-22T01:00:49.622Z,53.05
2023-05-22T01:03:18.192Z,52.37
2023-05-22T01:05:46.123Z,54.37
2023-05-22T01:08:13.508Z,54.02
2023-05-22T01:10:44.863Z,52.81
2023-05-22T01:13:15.366Z,53.07
2023-05-22T01:15:48.935Z,53.88
2023-05-22T01:18:36.603Z,53.45
2023-05-22T01:21:10.384Z,55.97
2023-05-22T01:23:40.949Z,55.47
2023-05-22T01:26:21.366Z,61.31
2023-05-22T01:28:48.895Z,56.76
2023-05-22T01:31:17.518Z,56.22
2023-05-22T01:33:53.419Z,56.29
2023-05-22T01:36:24.727Z,55.53
2023-05-22T01:38:53.625Z,60.66
2023-05-22T01:41:21.667Z,61.30
2023-05-22T01:43:49.140Z,62.84
2023-05-22T01:46:16.742Z,61.56
2023-05-22T01:48:44.400Z,64.82
2023-05-22T01:51:23.889Z,66.04
2023-05-22T01:54:14.546Z,67.10
2023-05-22T01:56:49.613Z,67.90
2023-05-22T01:59:23.610Z,68.84
2023-05-22T02:01:52.092Z,68.90
2023-05-22T02:04:21.652Z,69.35
2023-05-22T02:06:50.943Z,70.46
2023-05-22T02:09:21.146Z,69.08
2023-05-22T02:11:49.152Z,71.20
2023-05-22T02:14:18.224Z,71.61
2023-05-22T02:16:47.805Z,72.69
2023-05-22T02:19:15.895Z,73.89
2023-05-22T02:21:43.800Z,72.39
2023-05-22T02:24:11.260Z,75.29
2023-05-22T02:26:40.179Z,73.88
2023-05-22T02:29:08.310Z,75.13
2023-05-22T02:31:36.104Z,75.15
2023-05-22T02:34:05.489Z,75.81
2023-05-22T02:36:33.837Z,77.40
2023-05-22T02:39:01.187Z,77.58
2023-05-22T02:41:28.714Z,77.25
2023-05-22T02:43:56.208Z,77.94
2023-05-22T02:46:23.827Z,77.02
2023-05-22T02:48:52.506Z,77.31
2023-05-22T02:51:20.002Z,77.93
2023-05-22T02:53:47.425Z,78.16
2023-05-22T02:56:15.007Z,78.44
2023-05-22T02:58:42.425Z,78.74
2023-05-22T03:01:10.537Z,79.17
2023-05-22T03:03:37.934Z,79.10
2023-05-22T03:06:06.418Z,79.99
2023-05-22T03:08:35.001Z,80.71
2023-05-22T03:11:04.227Z,80.24
2023-05-22T03:13:31.603Z,79.94
2023-05-22T03:15:59.938Z,80.95
2023-05-22T03:18:27.944Z,80.50
2023-05-22T03:20:56.135Z,79.52
2023-05-22T03:23:25.246Z,79.39
2023-05-22T03:25:52.924Z,78.35
2023-05-22T03:28:21.415Z,79.44
2023-05-22T03:30:49.528Z,80.69
2023-05-22T03:33:27.519Z,80.33
2023-05-22T03:35:55.194Z,81.43
2023-05-22T03:38:22.808Z,81.92
2023-05-22T03:40:50.179Z,81.38
2023-05-22T03:43:17.665Z,80.78
2023-05-22T03:45:45.073Z,79.66
2023-05-22T03:48:12.945Z,80.82
2023-05-22T03:50:40.789Z,82.06
2023-05-22T03:53:08.459Z,81.88
2023-05-22T03:55:36.101Z,80.39
2023-05-22T03:58:03.654Z,80.94
2023-05-22T04:00:32.411Z,81.36
2023-05-22T04:02:59.739Z,81.91
2023-05-22T04:05:27.506Z,82.33
2023-05-22T04:07:56.043Z,81.59
2023-05-22T04:10:23.602Z,81.01
2023-05-22T04:12:52.058Z,82.91
2023-05-22T04:15:19.477Z,81.22
2023-05-22T04:17:47.698Z,83.73
2023-05-22T04:20:16.746Z,82.81
2023-05-22T04:22:46.611Z,83.51
2023-05-22T04:25:14.068Z,83.68
2023-05-22T04:27:41.368Z,84.37
2023-05-22T04:30:10.585Z,85.18
2023-05-22T04:32:39.447Z,84.97
2023-05-22T04:35:06.824Z,85.76
2023-05-22T04:37:36.112Z,85.85
2023-05-22T04:40:07.795Z,85.26
2023-05-22T04:42:35.226Z,86.58
2023-05-22T04:45:04.311Z,87.50
2023-05-22T04:47:32.150Z,88.10
2023-05-22T04:50:05.086Z,88.39
2023-05-22T04:52:32.547Z,87.17
2023-05-22T04:55:01.173Z,89.91
2023-05-22T04:57:29.830Z,90.87
2023-05-22T04:59:58.240Z,90.60
2023-05-22T05:02:25.750Z,92.11
2023-05-22T05:04:53.298Z,92.45
2023-05-22T05:07:21.622Z,92.65
2023-05-22T05:09:49.567Z,93.06
2023-05-22T05:12:16.990Z,92.59
2023-05-22T05:14:44.450Z,93.93
2023-05-22T05:17:15.685Z,87.50
2023-05-22T05:19:43.177Z,91.44
2023-05-22T05:22:10.937Z,91.21
2023-05-22T05:24:38.470Z,89.97
2023-05-22T05:27:06.085Z,90.19
2023-05-22T05:29:33.522Z,90.93
2023-05-22T05:32:06.425Z,91.52
2023-05-22T05:34:46.905Z,91.03
2023-05-22T05:37:32.771Z,87.45
2023-05-22T05:40:02.821Z,90.90
2023-05-22T05:42:30.294Z,91.19
2023-05-22T05:44:59.628Z,91.14
2023-05-22T05:47:29.793Z,90.36
2023-05-22T05:49:58.977Z,91.40
2023-05-22T05:52:32.799Z,90.98
2023-05-22T05:55:03.570Z,80.16
2023-05-22T05:57:31.259Z,90.79
2023-05-22T05:59:59.102Z,90.34
2023-05-22T06:02:41.967Z,89.85
2023-05-22T06:05:23.182Z,85.77
2023-05-22T06:07:58.413Z,89.39
2023-05-22T06:10:26.534Z,90.44
2023-05-22T06:13:13.544Z,88.56
2023-05-22T06:15:41.593Z,87.13
2023-05-22T06:18:21.120Z,85.83
2023-05-22T06:20:48.927Z,85.43
2023-05-22T06:23:16.357Z,83.42
2023-05-22T06:25:46.693Z,84.83
2023-05-22T06:28:14.815Z,80.91
2023-05-22T06:30:42.228Z,85.16
2023-05-22T06:33:14.710Z,79.53
2023-05-22T06:35:43.255Z,79.50
2023-05-22T06:38:24.612Z,79.59
2023-05-22T06:40:52.107Z,80.17
2023-05-22T06:43:23.211Z,79.96
2023-05-22T06:45:55.333Z,75.43
2023-05-22T06:48:37.726Z,69.17
2023-05-22T06:51:21.295Z,66.85
2023-05-22T06:53:51.953Z,73.14
2023-05-22T06:56:24.875Z,71.11
2023-05-22T06:58:59.241Z,66.91
2023-05-22T07:02:01.861Z,71.90
2023-05-22T07:04:47.358Z,72.81
2023-05-22T07:07:19.647Z,67.26
2023-05-22T07:09:47.909Z,62.36
2023-05-22T07:12:15.686Z,65.52
2023-05-22T07:14:43.096Z,68.26
2023-05-22T07:17:10.405Z,57.33
2023-05-22T07:19:42.601Z,62.92
2023-05-22T07:22:09.940Z,52.89
2023-05-22T07:24:39.449Z,56.38
2023-05-22T07:27:09.317Z,52.56
2023-05-22T07:29:38.090Z,58.13
2023-05-22T07:32:06.861Z,49.99
2023-05-22T07:34:35.567Z,49.83
2023-05-22T07:37:09.437Z,50.50
2023-05-22T07:39:37.308Z,48.11
2023-05-22T07:42:06.200Z,48.85
2023-05-22T07:44:38.142Z,47.76
2023-05-22T07:47:06.116Z,50.64
2023-05-22T07:49:34.713Z,46.71
2023-05-22T07:52:02.250Z,47.56
2023-05-22T07:54:29.645Z,47.15
2023-05-22T07:56:57.993Z,50.76
2023-05-22T07:59:28.652Z,51.01
2023-05-22T08:01:58.894Z,46.11
2023-05-22T08:04:26.485Z,47.43
2023-05-22T08:06:53.882Z,45.48
2023-05-22T08:09:21.747Z,45.76
2023-05-22T08:11:49.062Z,45.89
2023-05-22T08:14:16.518Z,44.59
2023-05-22T08:16:43.961Z,44.54
2023-05-22T08:19:11.478Z,44.10
2023-05-22T08:21:39.944Z,44.42
2023-05-22T08:24:08.069Z,43.52
2023-05-22T08:26:35.479Z,42.39
2023-05-22T08:29:03.182Z,43.71
2023-05-22T08:31:31.081Z,43.62
2023-05-22T08:34:02.771Z,44.08
2023-05-22T08:36:31.602Z,44.70
2023-05-22T08:38:58.901Z,43.37
2023-05-22T08:41:26.296Z,43.88
2023-05-22T08:43:53.783Z,42.39
2023-05-22T08:46:26.201Z,42.28
2023-05-22T08:48:56.892Z,43.22
2023-05-22T08:51:28.175Z,41.05
2023-05-22T08:53:58.951Z,40.28
2023-05-22T08:56:29.131Z,39.39
2023-05-22T08:58:57.582Z,39.78
2023-05-22T09:01:24.913Z,39.13
2023-05-22T09:03:52.361Z,39.38
2023-05-22T09:06:19.822Z,38.08
2023-05-22T09:08:48.119Z,38.05
2023-05-22T09:11:16.487Z,39.54
2023-05-22T09:13:44.795Z,38.94
2023-05-22T09:16:13.087Z,37.80
2023-05-22T09:18:41.540Z,38.53
2023-05-22T09:21:21.396Z,37.53
2023-05-22T09:23:59.651Z,37.51
2023-05-22T09:26:28.379Z,37.25
2023-05-22T09:28:57.116Z,36.97
2023-05-22T09:31:24.500Z,36.75
2023-05-22T09:33:51.903Z,35.79
2023-05-22T09:36:19.211Z,36.82
2023-05-22T09:38:46.606Z,36.57
2023-05-22T09:41:13.955Z,34.95
2023-05-22T09:43:49.590Z,35.05
2023-05-22T09:46:17.336Z,34.56
2023-05-22T09:48:44.645Z,35.05
2023-05-22T09:51:13.063Z,34.96
2023-05-22T09:53:41.338Z,35.47
2023-05-22T09:56:10.760Z,35.14
2023-05-22T09:58:40.644Z,35.74
2023-05-22T10:01:10.658Z,34.46
2023-05-22T10:03:39.392Z,34.60
2023-05-22T10:06:06.926Z,34.89
2023-05-22T10:08:38.822Z,33.81
2023-05-22T10:11:06.621Z,34.50
2023-05-22T10:13:35.784Z,34.38
2023-05-22T10:16:04.660Z,33.34
2023-05-22T10:18:32.073Z,33.60
2023-05-22T10:20:59.782Z,34.01
2023-05-22T10:23:28.380Z,33.94
2023-05-22T10:25:56.027Z,34.19
2023-05-22T10:28:30.516Z,33.50
2023-05-22T10:31:05.384Z,33.07
2023-05-22T10:34:05.895Z,33.65
2023-05-22T10:36:36.163Z,34.03
2023-05-22T10:39:22.947Z,33.50
2023-05-22T10:41:50.693Z,33.77
2023-05-22T10:44:18.153Z,33.43
2023-05-22T10:46:51.518Z,33.44
2023-05-22T10:49:23.528Z,35.70
2023-05-22T10:51:55.875Z,34.18
2023-05-22T10:54:40.236Z,33.23
2023-05-22T10:57:14.758Z,34.34
2023-05-22T10:59:42.364Z,33.89
2023-05-22T11:02:25.792Z,33.75
2023-05-22T11:04:53.257Z,34.39
2023-05-22T11:07:20.825Z,34.53
2023-05-22T11:09:48.723Z,34.99
2023-05-22T11:12:24.279Z,34.52
2023-05-22T11:14:51.703Z,33.65
2023-05-22T11:17:27.725Z,34.68
2023-05-22T11:20:02.366Z,34.24
2023-05-22T11:22:35.084Z,33.92
2023-05-22T11:25:09.754Z,34.60
2023-05-22T11:27:39.078Z,34.35
2023-05-22T11:30:07.298Z,34.71
2023-05-22T11:32:38.489Z,34.68
2023-05-22T11:35:08.259Z,34.92
2023-05-22T11:37:39.887Z,34.59
2023-05-22T11:40:07.725Z,34.97
2023-05-22T11:42:35.300Z,34.28
2023-05-22T11:45:03.374Z,33.42
2023-05-22T11:47:32.839Z,34.13
2023-05-22T11:50:01.659Z,34.42
2023-05-22T11:52:35.557Z,34.86
2023-05-22T11:55:05.772Z,34.27
2023-05-22T11:57:33.234Z,33.31
2023-05-22T12:00:01.057Z,33.24
2023-05-22T12:02:28.565Z,33.53
2023-05-22T12:04:56.518Z,32.98
2023-05-22T12:07:24.592Z,32.88
2023-05-22T12:09:52.292Z,33.31
2023-05-22T12:12:22.479Z,32.64
2023-05-22T12:14:50.066Z,33.65
2023-05-22T12:17:18.112Z,34.10
2023-05-22T12:19:47.252Z,33.48
2023-05-22T12:22:14.758Z,33.24
2023-05-22T12:24:43.073Z,34.31
2023-05-22T12:27:10.868Z,33.52
2023-05-22T12:29:42.354Z,33.88
2023-05-22T12:32:11.205Z,33.99
2023-05-22T12:34:45.844Z,31.78
2023-05-22T12:37:23.088Z,31.77
2023-05-22T12:39:54.329Z,31.39
2023-05-22T12:42:21.891Z,32.17
2023-05-22T12:44:52.440Z,32.92
2023-05-22T12:47:28.769Z,32.23
2023-05-22T12:49:56.453Z,32.00
2023-05-22T12:52:23.980Z,30.98
2023-05-22T12:54:51.962Z,31.76
2023-05-22T12:57:19.396Z,30.94
2023-05-22T12:59:47.002Z,31.62
2023-05-22T13:02:14.529Z,31.47
2023-05-22T13:04:42.203Z,32.44
2023-05-22T13:07:09.537Z,31.30
2023-05-22T13:09:37.186Z,30.99
2023-05-22T13:12:05.042Z,31.15
2023-05-22T13:14:32.533Z,32.18
2023-05-22T13:16:59.984Z,30.18
2023-05-22T13:19:27.618Z,30.31
2023-05-22T13:21:55.205Z,30.38
2023-05-22T13:24:22.554Z,32.08
2023-05-22T13:26:49.982Z,30.75
2023-05-22T13:29:17.379Z,31.17
2023-05-22T13:31:44.826Z,30.29
2023-05-22T13:34:12.270Z,29.77
2023-05-22T13:36:39.808Z,29.96
2023-05-22T13:39:07.330Z,29.94
2023-05-22T13:41:34.793Z,30.87
2023-05-22T13:44:02.194Z,30.61
2023-05-22T13:46:29.772Z,31.22
2023-05-22T13:48:57.105Z,31.69
2023-05-22T13:51:27.325Z,28.85
2023-05-22T13:53:54.954Z,28.46
2023-05-22T13:56:23.224Z,28.95
2023-05-22T13:58:50.732Z,29.58
2023-05-22T14:01:18.133Z,29.41
2023-05-22T14:03:45.634Z,30.61
2023-05-22T14:06:13.140Z,28.69
2023-05-22T14:08:41.132Z,28.67
2023-05-22T14:11:08.490Z,29.04
2023-05-22T14:13:36.066Z,29.18
2023-05-22T14:16:03.513Z,29.36
2023-05-22T14:18:31.487Z,29.88
2023-05-22T14:20:58.907Z,29.90
2023-05-22T14:23:26.400Z,28.77
2023-05-22T14:25:53.929Z,28.96
2023-05-22T14:28:21.316Z,28.50
2023-05-22T14:30:48.821Z,29.15
2023-05-22T14:33:16.232Z,28.85
2023-05-22T14:35:44.561Z,27.98
2023-05-22T14:38:11.925Z,28.80
2023-05-22T14:40:39.479Z,27.40
2023-05-22T14:43:06.987Z,28.56
2023-05-22T14:45:34.446Z,28.65
2023-05-22T14:48:01.990Z,28.75
2023-05-22T14:50:29.575Z,27.04
2023-05-22T14:52:56.946Z,26.77
2023-05-22T14:55:27.838Z,27.25
2023-05-22T14:57:55.690Z,26.96
2023-05-22T15:00:23.371Z,27.36
2023-05-22T15:02:51.111Z,28.07
2023-05-22T15:05:18.799Z,27.32
2023-05-22T15:07:48.405Z,28.32
2023-05-22T15:10:17.418Z,28.85
2023-05-22T15:12:44.811Z,27.91
2023-05-22T15:15:12.197Z,27.75
2023-05-22T15:17:42.352Z,28.26
2023-05-22T15:20:11.148Z,27.98
2023-05-22T15:22:39.324Z,30.37
2023-05-22T15:25:08.334Z,31.20
2023-05-22T15:27:36.187Z,28.91
2023-05-22T15:30:04.749Z,28.29
2023-05-22T15:32:34.243Z,28.65
2023-05-22T15:35:01.764Z,29.60
2023-05-22T15:37:34.417Z,29.19
2023-05-22T15:40:03.834Z,29.87
2023-05-22T15:42:31.716Z,29.78
2023-05-22T15:44:59.734Z,29.47
2023-05-22T15:47:27.345Z,30.37
2023-05-22T15:49:54.866Z,30.31
2023-05-22T15:52:24.548Z,30.48
2023-05-22T15:54:52.286Z,32.03
2023-05-22T15:57:20.153Z,30.74
2023-05-22T15:59:50.780Z,30.06
2023-05-22T16:02:18.766Z,29.54
2023-05-22T16:04:46.330Z,28.65
2023-05-22T16:07:13.797Z,29.56
2023-05-22T16:09:43.493Z,29.56
2023-05-22T16:12:11.003Z,30.77
2023-05-22T16:14:39.868Z,32.93
2023-05-22T16:17:07.729Z,34.94
2023-05-22T16:19:35.370Z,34.31
2023-05-22T16:22:03.191Z,35.73
2023-05-22T16:24:30.713Z,36.10
2023-05-22T16:26:59.492Z,38.71
2023-05-22T16:29:26.941Z,37.10
2023-05-22T16:31:54.483Z,37.67
2023-05-22T16:34:21.844Z,37.62
2023-05-22T16:36:49.310Z,39.67
2023-05-22T16:39:16.847Z,38.39
2023-05-22T16:41:44.403Z,39.85
2023-05-22T16:44:11.969Z,38.51
2023-05-22T16:46:39.503Z,39.20
2023-05-22T16:49:06.936Z,38.13
2023-05-22T16:51:34.496Z,39.89
2023-05-22T16:54:02.104Z,38.06
2023-05-22T16:56:29.542Z,39.45
2023-05-22T16:59:00.578Z,38.75
2023-05-22T17:01:48.907Z,38.51
2023-05-22T17:04:18.664Z,39.39
2023-05-22T17:06:46.335Z,38.30
2023-05-22T17:09:13.949Z,41.42
2023-05-22T17:11:41.457Z,42.03
2023-05-22T17:14:09.495Z,40.64
2023-05-22T17:16:38.077Z,41.64
2023-05-22T17:19:05.839Z,40.54
2023-05-22T17:21:33.350Z,41.00
2023-05-22T17:24:01.071Z,42.08
2023-05-22T17:26:29.452Z,45.41
2023-05-22T17:28:56.842Z,44.96
2023-05-22T17:31:24.360Z,46.88
2023-05-22T17:33:52.017Z,41.02
2023-05-22T17:36:19.535Z,45.84
2023-05-22T17:38:47.139Z,47.84
2023-05-22T17:41:14.604Z,50.33
2023-05-22T17:43:42.212Z,51.14
2023-05-22T17:46:09.813Z,51.48
2023-05-22T17:48:37.488Z,51.34
2023-05-22T17:51:04.946Z,53.28
2023-05-22T17:53:35.171Z,54.27
2023-05-22T17:56:04.786Z,54.69
2023-05-22T17:58:32.857Z,57.46
2023-05-22T18:01:00.314Z,57.37
2023-05-22T18:03:27.930Z,57.97
2023-05-22T18:05:55.637Z,57.85
2023-05-22T18:08:23.155Z,59.36
2023-05-22T18:10:50.730Z,59.22
2023-05-22T18:13:19.668Z,60.84
2023-05-22T18:15:48.401Z,60.27
2023-05-22T18:18:16.744Z,60.39
2023-05-22T18:20:46.247Z,61.88
2023-05-22T18:23:13.804Z,63.53
2023-05-22T18:25:41.672Z,63.91
2023-05-22T18:28:09.177Z,63.17
2023-05-22T18:30:36.677Z,62.46
2023-05-22T18:33:04.162Z,63.98
2023-05-22T18:35:31.646Z,63.19
2023-05-22T18:38:01.053Z,64.70
2023-05-22T18:40:28.901Z,64.86
2023-05-22T18:42:56.255Z,65.59
2023-05-22T18:45:23.646Z,66.09
2023-05-22T18:47:51.146Z,66.46
2023-05-22T18:50:18.768Z,67.39
2023-05-22T18:52:46.143Z,67.38
2023-05-22T18:55:13.853Z,69.26
2023-05-22T18:57:41.579Z,67.84
2023-05-22T19:00:10.513Z,68.30
2023-05-22T19:02:38.383Z,67.55
2023-05-22T19:05:07.091Z,68.66
2023-05-22T19:07:34.850Z,67.95
2023-05-22T19:10:06.224Z,66.25
2023-05-22T19:12:35.838Z,69.50
2023-05-22T19:15:03.979Z,67.52
2023-05-22T19:17:32.611Z,68.02
2023-05-22T19:20:01.104Z,69.80
2023-05-22T19:22:29.433Z,68.75
2023-05-22T19:24:57.214Z,67.09
2023-05-22T19:27:25.740Z,68.38
2023-05-22T19:29:53.427Z,69.76
2023-05-22T19:32:21.496Z,67.91
2023-05-22T19:34:49.614Z,68.06
2023-05-22T19:37:17.440Z,68.02
2023-05-22T19:39:45.923Z,66.14
2023-05-22T19:42:14.339Z,67.23
2023-05-22T19:44:43.061Z,65.71
2023-05-22T19:47:10.890Z,66.49
2023-05-22T19:49:38.453Z,68.27
2023-05-22T19:52:06.814Z,66.36
2023-05-22T19:54:34.864Z,68.08
2023-05-22T19:57:02.995Z,65.71
2023-05-22T19:59:31.181Z,66.29
2023-05-22T20:01:59.198Z,66.68
2023-05-22T20:04:26.896Z,65.17
2023-05-22T20:06:54.363Z,67.70
2023-05-22T20:09:21.766Z,65.99
2023-05-22T20:11:49.191Z,67.10
2023-05-22T20:14:16.517Z,66.23
2023-05-22T20:16:44.295Z,67.65
2023-05-22T20:19:14.374Z,66.18
2023-05-22T20:21:43.015Z,66.92
2023-05-22T20:24:17.545Z,66.30
2023-05-22T20:26:44.978Z,66.37
2023-05-22T20:29:13.063Z,66.60
2023-05-22T20:31:40.699Z,66.05
2023-05-22T20:34:09.664Z,66.53
2023-05-22T20:36:38.840Z,66.74
2023-05-22T20:39:06.773Z,68.12
2023-05-22T20:41:34.118Z,66.64
2023-05-22T20:44:02.748Z,66.68
2023-05-22T20:46:30.224Z,67.30
2023-05-22T20:48:58.463Z,66.92
2023-05-22T20:51:32.669Z,68.04
2023-05-22T20:54:00.345Z,67.46
2023-05-22T20:56:27.818Z,66.78
2023-05-22T20:58:55.592Z,66.85
2023-05-22T21:01:23.387Z,66.83
2023-05-22T21:03:51.858Z,67.19
2023-05-22T21:06:19.454Z,66.75
2023-05-22T21:08:46.921Z,68.00
2023-05-22T21:11:14.486Z,67.61
2023-05-22T21:13:41.931Z,67.03
2023-05-22T21:16:09.273Z,68.34
2023-05-22T21:18:36.645Z,69.41
2023-05-22T21:21:04.244Z,69.52
2023-05-22T21:23:31.559Z,69.94
2023-05-22T21:25:58.925Z,70.00
2023-05-22T21:28:26.577Z,72.18
2023-05-22T21:30:54.113Z,72.34
2023-05-22T21:33:21.550Z,72.74
2023-05-22T21:35:48.950Z,73.90
2023-05-22T21:38:16.507Z,74.80
2023-05-22T21:40:44.020Z,73.85
2023-05-22T21:43:11.382Z,75.59
2023-05-22T21:45:39.157Z,76.29
2023-05-22T21:48:06.532Z,75.31
2023-05-22T21:50:33.993Z,75.80
2023-05-22T21:53:01.363Z,77.17
2023-05-22T21:55:28.781Z,76.54
2023-05-22T21:57:56.497Z,75.73
2023-05-22T22:00:24.404Z,76.58
2023-05-22T22:02:51.899Z,75.65
2023-05-22T22:05:19.561Z,76.22
2023-05-22T22:07:46.944Z,76.25
2023-05-22T22:10:14.374Z,75.64
2023-05-22T22:12:41.785Z,76.88
2023-05-22T22:15:09.457Z,76.71
2023-05-22T22:17:37.387Z,74.05
2023-05-22T22:20:05.969Z,73.69
2023-05-22T22:22:33.287Z,75.72
2023-05-22T22:25:00.646Z,76.57
2023-05-22T22:27:28.050Z,77.04
2023-05-22T22:29:55.507Z,75.89
2023-05-22T22:32:22.871Z,77.16
2023-05-22T22:34:53.806Z,75.30
2023-05-22T22:37:21.776Z,75.81
2023-05-22T22:39:49.080Z,75.36
2023-05-22T22:42:16.449Z,72.41
2023-05-22T22:44:43.806Z,73.26
2023-05-22T22:47:11.081Z,71.98
2023-05-22T22:49:38.471Z,70.38
2023-05-22T22:52:05.856Z,70.40
2023-05-22T22:54:33.291Z,72.72
2023-05-22T22:57:00.590Z,73.76
2023-05-22T22:59:28.064Z,74.94
2023-05-22T23:01:55.411Z,76.51
2023-05-22T23:04:23.007Z,76.96
2023-05-22T23:06:50.445Z,77.29
2023-05-22T23:09:18.060Z,78.80
2023-05-22T23:11:45.393Z,79.07
2023-05-22T23:14:13.653Z,78.93
2023-05-22T23:16:41.225Z,79.95
2023-05-22T23:19:10.722Z,80.66
2023-05-22T23:21:38.446Z,79.96
2023-05-22T23:24:06.454Z,79.60
2023-05-22T23:26:33.909Z,80.27
2023-05-22T23:29:01.455Z,80.17
2023-05-22T23:31:30.818Z,80.37
2023-05-22T23:33:58.729Z,80.50
2023-05-22T23:36:26.256Z,79.83
2023-05-22T23:38:53.649Z,80.75
2023-05-22T23:41:21.116Z,81.38
2023-05-22T23:43:48.505Z,80.42
2023-05-22T23:46:15.906Z,79.82
2023-05-22T23:48:43.303Z,80.96
2023-05-22T23:51:14.455Z,80.54
2023-05-22T23:53:42.095Z,80.92
2023-05-22T23:56:09.820Z,81.64
2023-05-22T23:58:37.681Z,81.66
